CNS8 weather

Morrisburg Airport
Morrisburg, Ontario, Canada

Public forecast

Using degrees Celsius for public forecast. Weather courtesy of forecast.io.

METAR (pilot weather report)

Closest report is Massena International Richards Field, 9.9 nm (18.3 km) E. Retrieved 2019/04/20 19:03 UTC (47 minutes ago):

KMSS 201903Z AUTO 06017G25KT 9SM OVC006 07/05 A2979 RMK AO2 RAE03 P0000 T00670050

TAF (pilot weather forecast)

Closest forecast is Massena International Richards Field, 9.9 nm (18.3 km) E. Retrieved 2019/04/20 18:24 UTC (1 hour ago):

TAF KMSS 201721Z 2018/2118 06015G27KT P6SM -SHRA OVC007 FM210000 07014G22KT P6SM OVC015 FM210200 07009KT P6SM BKN025 FM210400 08007KT P6SM BKN070 FM210700 11005KT P6SM SCT150